Luchthavens in de buurt

   
Beek
Gewijzigd: 29-01-2020 05:25
Grotendeels bewolkt  
Grotendeels bewolkt  
   Wind: ZW 25.9 km/h
Wind: ZW 25.9 km/h
Temperatuur: 4°C
Voelt als: -1°C
Dauwpunt: 1°C
Vochtigheid: 81%
Barometer: 1005 hPa
Bewolking: Grotendeels bewolkt
Zicht: meer dan 10 km
Bewolking: Licht bewolkt 426.7 m,
Grotendeels bewolkt 487.7 m,
Grotendeels bewolkt 792.5 m
EHBK 290425Z AUTO 23014KT 9999 FEW014 BKN016 BKN026 04/01 Q1005
Eindhoven
Gewijzigd: 29-01-2020 05:25
Bewolking  
Bewolking  
   Wind: ZW 24.1 km/h
Wind: ZW 24.1 km/h
Temperatuur: 4°C
Voelt als: -1°C
Dauwpunt: 2°C
Vochtigheid: 87%
Barometer: 1003 hPa
Bewolking: Bewolking
Zicht: meer dan 10 km
Bewolking: Grotendeels bewolkt 1097.3 m,
Bewolking 6705.6 m
EHEH 290425Z AUTO 23013KT 9999 BKN036 OVC220 04/02 Q1003 BLU
Rotterdam
Gewijzigd: 29-01-2020 05:25
Grotendeels bewolkt  
Grotendeels bewolkt  
   Wind: Westen 24.1 km/h
Wind: Westen 24.1 km/h
Temperatuur: 6°C
Voelt als: 2°C
Dauwpunt: 2°C
Vochtigheid: 76%
Barometer: 1002 hPa
Bewolking: Grotendeels bewolkt
Zicht: meer dan 10 km
Bewolking: Grotendeels bewolkt 670.6 m,
Grotendeels bewolkt 792.5 m
EHRD 290425Z AUTO 26013KT 220V290 9999 BKN022 BKN026 06/02 Q1002 NOSIG
Amsterdam
Gewijzigd: 29-01-2020 05:25
Gedeeltelijk bewolkt  
Gedeeltelijk bewolkt  
   Wind: Westen 33.3 km/h
Wind: Westen 33.3 km/h
Temperatuur: 6°C
Voelt als: 1°C
Dauwpunt: 2°C
Vochtigheid: 76%
Barometer: 1000 hPa
Bewolking: Gedeeltelijk bewolkt
Zicht: meer dan 10 km
Bewolking: Licht bewolkt 640.1 m,
Gedeeltelijk bewolkt 792.5 m
EHAM 290425Z 26018KT 9999 FEW021 SCT026 06/02 Q1000 NOSIG
Liège
Gewijzigd: 29-01-2020 05:20
Gedeeltelijk bewolkt  
Gedeeltelijk bewolkt  
   Wind: WZW 22.2 km/h
Wind: WZW 22.2 km/h
Temperatuur: 2°C
Voelt als: -3°C
Dauwpunt: 0°C
Vochtigheid: 87%
Barometer: 1005 hPa
Bewolking: Gedeeltelijk bewolkt
Zicht: meer dan 10 km
Bewolking: Licht bewolkt 487.7 m,
Gedeeltelijk bewolkt 914.4 m
EBLG 290420Z 24012KT 9999 FEW016 SCT030 02/00 Q1005 NOSIG
Bruxelles
Gewijzigd: 29-01-2020 05:20
Helder  
Helder  
   Wind: ZW 18.5 km/h
Wind: ZW 18.5 km/h
Temperatuur: 3°C
Voelt als: -1°C
Dauwpunt: 0°C
Vochtigheid: 81%
Barometer: 1005 hPa
Zicht: meer dan 10 km
Bewolking: Helder
EBBR 290420Z 23010KT CAVOK 03/00 Q1005 NOSIG
Luxembourg
Gewijzigd: 29-01-2020 05:20
Grotendeels bewolkt  
Grotendeels bewolkt  
   Wind: Westen 25.9 km/h
Wind: Westen 25.9 km/h
Temperatuur: 2°C
Voelt als: -3°C
Dauwpunt: 0°C
Vochtigheid: 87%
Barometer: 1007 hPa
Bewolking: Grotendeels bewolkt
Zicht: meer dan 10 km
Bewolking: Licht bewolkt 365.8 m,
Grotendeels bewolkt 609.6 m
ELLX 290420Z 26014KT 9999 FEW012 BKN020 02/00 Q1007 NOSIG
Düsseldorf
Gewijzigd: 29-01-2020 05:20
Gedeeltelijk bewolkt  
Gedeeltelijk bewolkt  
   Wind: ZW 27.8 km/h
Wind: ZW 27.8 km/h
Temperatuur: 4°C
Voelt als: -1°C
Dauwpunt: 2°C
Vochtigheid: 87%
Barometer: 1003 hPa
Bewolking: Gedeeltelijk bewolkt
Zicht: meer dan 10 km
Bewolking: Gedeeltelijk bewolkt 487.7 m
EDDL 290420Z 23015KT 9999 SCT016 04/02 Q1003 TEMPO 24015G25KT
Frankfurt am Main
Gewijzigd: 29-01-2020 05:20
Grotendeels bewolkt  
Grotendeels bewolkt  
   Wind: Zuiden 18.5 km/h
Wind: Zuiden 18.5 km/h
Temperatuur: 2°C
Voelt als: -2°C
Dauwpunt: 1°C
Vochtigheid: 93%
Barometer: 1006 hPa
Bewolking: Grotendeels bewolkt
Zicht: meer dan 10 km
Bewolking: Grotendeels bewolkt 1402.1 m
EDDF 290420Z 19010KT 9999 BKN046 02/01 Q1006 NOSIG

Originele script door Saratoga weather  Aangepast door weerstation Leuven 

U vindt ons ook hier:

Het Weer Aktueel

WeatherlinkIP

Weather Underground

KnmiWow

UK Metoffice

Apparatuur in gebruik:

Weerstation
Davis Vantage Pro 2

Datalogger
Davis Weatherlink

Weercomputer
Meteobridge Pro

Leverancier
Weerspecialist

Webleverancier
Robohost

Davis Vantage Pro 2

Davis Weatherlink

Meteobridge Pro

Weerspecialist

Robohost